sensor_id;sensor_type;location;lat;lon;timestamp;P1;durP1;ratioP1;P2;durP2;ratioP2
16954;SDS011;8594;52.052;8.354;2023-12-22T00:00:12;24.23;;;5.03;;
16954;SDS011;8594;52.052;8.354;2023-12-22T00:02:39;21.90;;;3.87;;
16954;SDS011;8594;52.052;8.354;2023-12-22T00:05:06;30.40;;;5.03;;
16954;SDS011;8594;52.052;8.354;2023-12-22T00:07:33;29.03;;;4.13;;
16954;SDS011;8594;52.052;8.354;2023-12-22T00:10:00;24.00;;;4.27;;
16954;SDS011;8594;52.052;8.354;2023-12-22T00:12:27;23.63;;;3.77;;
16954;SDS011;8594;52.052;8.354;2023-12-22T00:14:54;28.13;;;4.30;;
16954;SDS011;8594;52.052;8.354;2023-12-22T00:17:22;24.97;;;4.03;;
16954;SDS011;8594;52.052;8.354;2023-12-22T00:19:48;24.43;;;4.03;;
16954;SDS011;8594;52.052;8.354;2023-12-22T00:22:14;22.03;;;5.17;;
16954;SDS011;8594;52.052;8.354;2023-12-22T00:24:41;23.53;;;4.50;;
16954;SDS011;8594;52.052;8.354;2023-12-22T00:27:07;26.90;;;4.87;;
16954;SDS011;8594;52.052;8.354;2023-12-22T00:29:34;32.53;;;4.47;;
16954;SDS011;8594;52.052;8.354;2023-12-22T00:32:02;28.57;;;4.63;;
16954;SDS011;8594;52.052;8.354;2023-12-22T00:34:31;22.57;;;4.43;;
16954;SDS011;8594;52.052;8.354;2023-12-22T00:36:57;33.43;;;4.37;;
16954;SDS011;8594;52.052;8.354;2023-12-22T00:39:25;22.47;;;4.77;;
16954;SDS011;8594;52.052;8.354;2023-12-22T00:41:51;31.47;;;5.37;;
16954;SDS011;8594;52.052;8.354;2023-12-22T00:44:18;20.77;;;4.07;;
16954;SDS011;8594;52.052;8.354;2023-12-22T00:46:45;24.67;;;4.00;;
16954;SDS011;8594;52.052;8.354;2023-12-22T00:49:11;20.03;;;4.03;;
16954;SDS011;8594;52.052;8.354;2023-12-22T00:51:39;18.53;;;3.83;;
16954;SDS011;8594;52.052;8.354;2023-12-22T00:54:06;26.83;;;4.80;;
16954;SDS011;8594;52.052;8.354;2023-12-22T00:56:33;33.40;;;4.63;;
16954;SDS011;8594;52.052;8.354;2023-12-22T00:58:59;24.03;;;3.83;;
16954;SDS011;8594;52.052;8.354;2023-12-22T01:01:26;30.03;;;4.57;;
16954;SDS011;8594;52.052;8.354;2023-12-22T01:03:54;23.73;;;4.30;;
16954;SDS011;8594;52.052;8.354;2023-12-22T01:06:20;36.83;;;5.70;;
16954;SDS011;8594;52.052;8.354;2023-12-22T01:08:48;29.00;;;4.53;;
16954;SDS011;8594;52.052;8.354;2023-12-22T01:11:15;20.23;;;3.70;;
16954;SDS011;8594;52.052;8.354;2023-12-22T01:13:42;22.93;;;3.50;;
16954;SDS011;8594;52.052;8.354;2023-12-22T01:16:09;21.37;;;4.13;;
16954;SDS011;8594;52.052;8.354;2023-12-22T01:18:36;25.30;;;4.23;;
16954;SDS011;8594;52.052;8.354;2023-12-22T01:21:05;24.50;;;3.83;;
16954;SDS011;8594;52.052;8.354;2023-12-22T01:23:32;21.20;;;4.07;;
16954;SDS011;8594;52.052;8.354;2023-12-22T01:26:00;27.00;;;3.83;;
16954;SDS011;8594;52.052;8.354;2023-12-22T01:28:26;19.07;;;3.93;;
16954;SDS011;8594;52.052;8.354;2023-12-22T01:30:53;26.73;;;4.03;;
16954;SDS011;8594;52.052;8.354;2023-12-22T01:33:20;25.33;;;4.00;;
16954;SDS011;8594;52.052;8.354;2023-12-22T01:35:46;23.57;;;4.47;;
16954;SDS011;8594;52.052;8.354;2023-12-22T01:38:13;21.70;;;4.10;;
16954;SDS011;8594;52.052;8.354;2023-12-22T01:40:40;27.27;;;4.13;;
16954;SDS011;8594;52.052;8.354;2023-12-22T01:43:08;20.30;;;4.27;;
16954;SDS011;8594;52.052;8.354;2023-12-22T01:45:34;22.13;;;3.20;;
16954;SDS011;8594;52.052;8.354;2023-12-22T01:48:01;13.73;;;3.20;;
16954;SDS011;8594;52.052;8.354;2023-12-22T01:50:30;21.70;;;5.30;;
16954;SDS011;8594;52.052;8.354;2023-12-22T01:52:57;20.67;;;4.07;;
16954;SDS011;8594;52.052;8.354;2023-12-22T01:55:24;17.13;;;3.80;;
16954;SDS011;8594;52.052;8.354;2023-12-22T01:57:50;13.83;;;3.17;;
16954;SDS011;8594;52.052;8.354;2023-12-22T02:00:19;29.07;;;4.17;;
16954;SDS011;8594;52.052;8.354;2023-12-22T02:02:46;15.90;;;3.17;;
16954;SDS011;8594;52.052;8.354;2023-12-22T02:05:13;16.77;;;3.43;;
16954;SDS011;8594;52.052;8.354;2023-12-22T02:07:41;21.57;;;3.47;;
16954;SDS011;8594;52.052;8.354;2023-12-22T02:10:09;19.67;;;3.30;;
16954;SDS011;8594;52.052;8.354;2023-12-22T02:12:36;15.40;;;2.87;;
16954;SDS011;8594;52.052;8.354;2023-12-22T02:15:03;29.87;;;3.67;;
16954;SDS011;8594;52.052;8.354;2023-12-22T02:17:35;13.60;;;3.30;;
16954;SDS011;8594;52.052;8.354;2023-12-22T02:20:14;19.47;;;3.53;;
16954;SDS011;8594;52.052;8.354;2023-12-22T02:22:42;17.77;;;3.07;;
16954;SDS011;8594;52.052;8.354;2023-12-22T02:25:09;22.43;;;4.60;;
16954;SDS011;8594;52.052;8.354;2023-12-22T02:27:38;16.97;;;4.00;;
16954;SDS011;8594;52.052;8.354;2023-12-22T02:30:14;12.13;;;2.77;;
16954;SDS011;8594;52.052;8.354;2023-12-22T02:32:48;25.80;;;3.17;;
16954;SDS011;8594;52.052;8.354;2023-12-22T02:35:20;25.33;;;4.30;;
16954;SDS011;8594;52.052;8.354;2023-12-22T02:37:52;20.37;;;3.90;;
16954;SDS011;8594;52.052;8.354;2023-12-22T02:40:22;18.73;;;3.40;;
16954;SDS011;8594;52.052;8.354;2023-12-22T02:42:51;21.00;;;3.70;;
16954;SDS011;8594;52.052;8.354;2023-12-22T02:45:19;20.87;;;3.17;;
16954;SDS011;8594;52.052;8.354;2023-12-22T02:47:46;27.77;;;4.03;;
16954;SDS011;8594;52.052;8.354;2023-12-22T02:50:15;15.50;;;3.50;;
16954;SDS011;8594;52.052;8.354;2023-12-22T02:52:42;25.03;;;3.97;;
16954;SDS011;8594;52.052;8.354;2023-12-22T02:55:11;26.70;;;4.03;;
16954;SDS011;8594;52.052;8.354;2023-12-22T02:57:38;23.67;;;4.17;;
16954;SDS011;8594;52.052;8.354;2023-12-22T03:00:05;29.00;;;3.83;;
16954;SDS011;8594;52.052;8.354;2023-12-22T03:02:33;26.27;;;4.37;;
16954;SDS011;8594;52.052;8.354;2023-12-22T03:04:59;26.73;;;4.00;;
16954;SDS011;8594;52.052;8.354;2023-12-22T03:07:26;23.37;;;5.53;;
16954;SDS011;8594;52.052;8.354;2023-12-22T03:09:53;19.00;;;3.47;;
16954;SDS011;8594;52.052;8.354;2023-12-22T03:12:21;22.63;;;3.57;;
16954;SDS011;8594;52.052;8.354;2023-12-22T03:14:48;22.17;;;4.53;;
16954;SDS011;8594;52.052;8.354;2023-12-22T03:17:14;14.90;;;3.30;;
16954;SDS011;8594;52.052;8.354;2023-12-22T03:19:41;17.83;;;4.40;;
16954;SDS011;8594;52.052;8.354;2023-12-22T03:22:08;24.43;;;3.27;;
16954;SDS011;8594;52.052;8.354;2023-12-22T03:24:35;20.33;;;3.80;;
16954;SDS011;8594;52.052;8.354;2023-12-22T03:27:02;21.37;;;4.10;;
16954;SDS011;8594;52.052;8.354;2023-12-22T03:29:30;20.10;;;3.43;;
16954;SDS011;8594;52.052;8.354;2023-12-22T03:31:57;27.87;;;4.03;;
16954;SDS011;8594;52.052;8.354;2023-12-22T03:34:24;19.00;;;3.47;;
16954;SDS011;8594;52.052;8.354;2023-12-22T03:36:51;24.57;;;4.43;;
16954;SDS011;8594;52.052;8.354;2023-12-22T03:39:18;16.20;;;3.30;;
16954;SDS011;8594;52.052;8.354;2023-12-22T03:41:44;23.40;;;3.30;;
16954;SDS011;8594;52.052;8.354;2023-12-22T03:44:11;22.10;;;3.33;;
16954;SDS011;8594;52.052;8.354;2023-12-22T03:46:39;16.47;;;3.63;;
16954;SDS011;8594;52.052;8.354;2023-12-22T03:49:06;17.40;;;3.40;;
16954;SDS011;8594;52.052;8.354;2023-12-22T03:51:32;27.87;;;3.30;;
16954;SDS011;8594;52.052;8.354;2023-12-22T03:53:59;30.97;;;3.30;;
16954;SDS011;8594;52.052;8.354;2023-12-22T03:56:26;16.13;;;2.87;;
16954;SDS011;8594;52.052;8.354;2023-12-22T03:58:53;18.77;;;3.20;;
16954;SDS011;8594;52.052;8.354;2023-12-22T04:01:19;23.67;;;3.80;;
16954;SDS011;8594;52.052;8.354;2023-12-22T04:03:47;22.30;;;3.30;;
16954;SDS011;8594;52.052;8.354;2023-12-22T04:06:14;28.40;;;3.77;;
16954;SDS011;8594;52.052;8.354;2023-12-22T04:08:41;20.83;;;3.60;;
16954;SDS011;8594;52.052;8.354;2023-12-22T04:11:07;17.43;;;3.60;;
16954;SDS011;8594;52.052;8.354;2023-12-22T04:13:34;13.03;;;2.67;;
16954;SDS011;8594;52.052;8.354;2023-12-22T04:16:01;17.30;;;2.87;;
16954;SDS011;8594;52.052;8.354;2023-12-22T04:18:29;24.87;;;4.37;;
16954;SDS011;8594;52.052;8.354;2023-12-22T04:20:57;20.83;;;3.87;;
16954;SDS011;8594;52.052;8.354;2023-12-22T04:23:24;20.93;;;3.60;;
16954;SDS011;8594;52.052;8.354;2023-12-22T04:25:51;15.80;;;3.47;;
16954;SDS011;8594;52.052;8.354;2023-12-22T04:28:18;16.03;;;3.17;;
16954;SDS011;8594;52.052;8.354;2023-12-22T04:30:45;22.60;;;3.20;;
16954;SDS011;8594;52.052;8.354;2023-12-22T04:33:11;20.43;;;3.10;;
16954;SDS011;8594;52.052;8.354;2023-12-22T04:35:38;19.73;;;3.43;;
16954;SDS011;8594;52.052;8.354;2023-12-22T04:38:07;22.67;;;3.37;;
16954;SDS011;8594;52.052;8.354;2023-12-22T04:40:34;12.47;;;2.33;;
16954;SDS011;8594;52.052;8.354;2023-12-22T04:43:00;13.50;;;2.37;;
16954;SDS011;8594;52.052;8.354;2023-12-22T04:45:27;7.57;;;1.97;;
16954;SDS011;8594;52.052;8.354;2023-12-22T04:47:54;7.73;;;1.77;;
16954;SDS011;8594;52.052;8.354;2023-12-22T04:50:22;12.63;;;2.23;;
16954;SDS011;8594;52.052;8.354;2023-12-22T04:52:48;13.47;;;2.57;;
16954;SDS011;8594;52.052;8.354;2023-12-22T04:55:16;14.33;;;1.90;;
16954;SDS011;8594;52.052;8.354;2023-12-22T04:57:43;9.63;;;2.20;;
16954;SDS011;8594;52.052;8.354;2023-12-22T05:00:11;6.23;;;1.70;;
16954;SDS011;8594;52.052;8.354;2023-12-22T05:02:39;12.63;;;2.13;;
16954;SDS011;8594;52.052;8.354;2023-12-22T05:05:06;4.77;;;1.77;;
16954;SDS011;8594;52.052;8.354;2023-12-22T05:07:34;13.37;;;2.40;;
16954;SDS011;8594;52.052;8.354;2023-12-22T05:10:01;7.97;;;1.67;;
16954;SDS011;8594;52.052;8.354;2023-12-22T05:12:29;7.77;;;1.30;;
16954;SDS011;8594;52.052;8.354;2023-12-22T05:14:56;3.43;;;1.43;;
16954;SDS011;8594;52.052;8.354;2023-12-22T05:17:22;4.87;;;1.37;;
16954;SDS011;8594;52.052;8.354;2023-12-22T05:19:49;6.10;;;1.50;;
16954;SDS011;8594;52.052;8.354;2023-12-22T05:22:16;7.63;;;1.80;;
16954;SDS011;8594;52.052;8.354;2023-12-22T05:24:42;7.47;;;1.60;;
16954;SDS011;8594;52.052;8.354;2023-12-22T05:27:09;10.73;;;1.80;;
16954;SDS011;8594;52.052;8.354;2023-12-22T05:29:37;3.77;;;1.83;;
16954;SDS011;8594;52.052;8.354;2023-12-22T05:32:04;6.50;;;1.70;;
16954;SDS011;8594;52.052;8.354;2023-12-22T05:34:32;7.23;;;1.60;;
16954;SDS011;8594;52.052;8.354;2023-12-22T05:36:59;9.67;;;2.00;;
16954;SDS011;8594;52.052;8.354;2023-12-22T05:39:25;8.80;;;1.67;;
16954;SDS011;8594;52.052;8.354;2023-12-22T05:41:52;11.03;;;1.80;;
16954;SDS011;8594;52.052;8.354;2023-12-22T05:44:19;7.53;;;2.13;;
16954;SDS011;8594;52.052;8.354;2023-12-22T05:46:48;9.10;;;1.60;;
16954;SDS011;8594;52.052;8.354;2023-12-22T05:49:15;5.50;;;2.40;;
16954;SDS011;8594;52.052;8.354;2023-12-22T05:51:42;6.07;;;1.27;;
16954;SDS011;8594;52.052;8.354;2023-12-22T05:54:09;12.13;;;2.50;;
16954;SDS011;8594;52.052;8.354;2023-12-22T05:56:36;9.50;;;1.70;;
16954;SDS011;8594;52.052;8.354;2023-12-22T05:59:03;13.07;;;2.00;;
16954;SDS011;8594;52.052;8.354;2023-12-22T06:01:30;17.97;;;2.30;;
16954;SDS011;8594;52.052;8.354;2023-12-22T06:03:58;13.37;;;2.10;;
16954;SDS011;8594;52.052;8.354;2023-12-22T06:06:25;12.40;;;2.20;;
16954;SDS011;8594;52.052;8.354;2023-12-22T06:08:52;7.43;;;2.30;;
16954;SDS011;8594;52.052;8.354;2023-12-22T06:11:19;14.47;;;3.17;;
16954;SDS011;8594;52.052;8.354;2023-12-22T06:13:45;16.17;;;2.33;;
16954;SDS011;8594;52.052;8.354;2023-12-22T06:16:12;16.33;;;2.27;;
16954;SDS011;8594;52.052;8.354;2023-12-22T06:18:40;11.00;;;2.17;;
16954;SDS011;8594;52.052;8.354;2023-12-22T06:21:09;15.47;;;2.30;;
16954;SDS011;8594;52.052;8.354;2023-12-22T06:23:36;16.73;;;3.03;;
16954;SDS011;8594;52.052;8.354;2023-12-22T06:26:07;22.60;;;3.10;;
16954;SDS011;8594;52.052;8.354;2023-12-22T06:28:35;14.27;;;2.80;;
16954;SDS011;8594;52.052;8.354;2023-12-22T06:31:03;12.00;;;2.77;;
16954;SDS011;8594;52.052;8.354;2023-12-22T06:33:30;14.87;;;2.73;;
16954;SDS011;8594;52.052;8.354;2023-12-22T06:35:57;20.43;;;2.87;;
16954;SDS011;8594;52.052;8.354;2023-12-22T06:38:25;15.70;;;2.50;;
16954;SDS011;8594;52.052;8.354;2023-12-22T06:40:52;17.80;;;2.83;;
16954;SDS011;8594;52.052;8.354;2023-12-22T06:43:20;21.30;;;3.00;;
16954;SDS011;8594;52.052;8.354;2023-12-22T06:45:46;13.60;;;2.53;;
16954;SDS011;8594;52.052;8.354;2023-12-22T06:48:13;12.13;;;3.20;;
16954;SDS011;8594;52.052;8.354;2023-12-22T06:50:40;15.27;;;3.37;;
16954;SDS011;8594;52.052;8.354;2023-12-22T06:53:09;21.03;;;3.70;;
16954;SDS011;8594;52.052;8.354;2023-12-22T06:55:37;14.63;;;2.53;;
16954;SDS011;8594;52.052;8.354;2023-12-22T06:58:04;18.53;;;3.30;;
16954;SDS011;8594;52.052;8.354;2023-12-22T07:00:31;20.17;;;3.00;;
16954;SDS011;8594;52.052;8.354;2023-12-22T07:02:58;27.37;;;3.73;;
16954;SDS011;8594;52.052;8.354;2023-12-22T07:05:33;18.07;;;3.23;;
16954;SDS011;8594;52.052;8.354;2023-12-22T07:08:04;24.43;;;3.27;;
16954;SDS011;8594;52.052;8.354;2023-12-22T07:10:32;13.23;;;2.83;;
16954;SDS011;8594;52.052;8.354;2023-12-22T07:13:00;19.57;;;2.63;;
16954;SDS011;8594;52.052;8.354;2023-12-22T07:15:26;23.23;;;4.10;;
16954;SDS011;8594;52.052;8.354;2023-12-22T07:17:53;17.17;;;2.90;;
16954;SDS011;8594;52.052;8.354;2023-12-22T07:20:20;20.77;;;3.50;;
16954;SDS011;8594;52.052;8.354;2023-12-22T07:22:47;20.60;;;2.93;;
16954;SDS011;8594;52.052;8.354;2023-12-22T07:25:19;25.13;;;3.27;;
16954;SDS011;8594;52.052;8.354;2023-12-22T07:27:45;16.90;;;2.87;;
16954;SDS011;8594;52.052;8.354;2023-12-22T07:30:14;16.83;;;3.33;;
16954;SDS011;8594;52.052;8.354;2023-12-22T07:32:43;19.23;;;4.97;;
16954;SDS011;8594;52.052;8.354;2023-12-22T07:35:12;12.80;;;2.80;;
16954;SDS011;8594;52.052;8.354;2023-12-22T07:37:39;20.60;;;3.43;;
16954;SDS011;8594;52.052;8.354;2023-12-22T07:40:06;21.93;;;3.10;;
16954;SDS011;8594;52.052;8.354;2023-12-22T07:42:35;26.17;;;3.53;;
16954;SDS011;8594;52.052;8.354;2023-12-22T07:45:02;22.50;;;3.90;;
16954;SDS011;8594;52.052;8.354;2023-12-22T07:47:32;14.67;;;2.93;;
16954;SDS011;8594;52.052;8.354;2023-12-22T07:49:59;14.57;;;2.97;;
16954;SDS011;8594;52.052;8.354;2023-12-22T07:52:26;20.73;;;3.20;;
16954;SDS011;8594;52.052;8.354;2023-12-22T07:54:52;22.67;;;3.33;;
16954;SDS011;8594;52.052;8.354;2023-12-22T07:57:19;25.67;;;3.87;;
16954;SDS011;8594;52.052;8.354;2023-12-22T07:59:47;26.47;;;3.30;;
16954;SDS011;8594;52.052;8.354;2023-12-22T08:02:13;21.47;;;3.77;;
16954;SDS011;8594;52.052;8.354;2023-12-22T08:04:41;25.90;;;3.53;;
16954;SDS011;8594;52.052;8.354;2023-12-22T08:07:08;27.50;;;3.53;;
16954;SDS011;8594;52.052;8.354;2023-12-22T08:09:35;21.80;;;3.17;;
16954;SDS011;8594;52.052;8.354;2023-12-22T08:12:02;13.23;;;3.07;;
16954;SDS011;8594;52.052;8.354;2023-12-22T08:14:29;17.23;;;3.10;;
16954;SDS011;8594;52.052;8.354;2023-12-22T08:16:56;22.77;;;3.83;;
16954;SDS011;8594;52.052;8.354;2023-12-22T08:19:23;24.10;;;3.57;;
16954;SDS011;8594;52.052;8.354;2023-12-22T08:21:53;28.87;;;3.53;;
16954;SDS011;8594;52.052;8.354;2023-12-22T08:24:20;18.47;;;2.90;;
16954;SDS011;8594;52.052;8.354;2023-12-22T08:26:47;25.10;;;3.40;;
16954;SDS011;8594;52.052;8.354;2023-12-22T08:29:14;19.67;;;3.00;;
16954;SDS011;8594;52.052;8.354;2023-12-22T08:31:44;26.87;;;3.70;;
16954;SDS011;8594;52.052;8.354;2023-12-22T08:34:11;20.50;;;3.67;;
16954;SDS011;8594;52.052;8.354;2023-12-22T08:36:37;29.80;;;4.63;;
16954;SDS011;8594;52.052;8.354;2023-12-22T08:39:05;15.23;;;3.37;;
16954;SDS011;8594;52.052;8.354;2023-12-22T08:41:32;26.97;;;3.77;;
16954;SDS011;8594;52.052;8.354;2023-12-22T08:44:02;18.67;;;3.57;;
16954;SDS011;8594;52.052;8.354;2023-12-22T08:46:29;22.73;;;3.20;;
16954;SDS011;8594;52.052;8.354;2023-12-22T08:48:56;18.67;;;3.77;;
16954;SDS011;8594;52.052;8.354;2023-12-22T08:51:24;16.57;;;3.70;;
16954;SDS011;8594;52.052;8.354;2023-12-22T08:53:51;25.20;;;3.23;;
16954;SDS011;8594;52.052;8.354;2023-12-22T08:56:21;15.93;;;3.67;;
16954;SDS011;8594;52.052;8.354;2023-12-22T08:58:48;12.07;;;2.60;;
16954;SDS011;8594;52.052;8.354;2023-12-22T09:01:17;15.53;;;2.80;;
16954;SDS011;8594;52.052;8.354;2023-12-22T09:03:44;18.87;;;3.43;;
16954;SDS011;8594;52.052;8.354;2023-12-22T09:06:13;17.07;;;3.40;;
16954;SDS011;8594;52.052;8.354;2023-12-22T09:08:40;10.83;;;2.63;;
16954;SDS011;8594;52.052;8.354;2023-12-22T09:11:07;17.53;;;3.30;;
16954;SDS011;8594;52.052;8.354;2023-12-22T09:13:35;12.37;;;2.80;;
16954;SDS011;8594;52.052;8.354;2023-12-22T09:16:02;20.40;;;2.60;;
16954;SDS011;8594;52.052;8.354;2023-12-22T09:18:30;11.03;;;2.43;;
16954;SDS011;8594;52.052;8.354;2023-12-22T09:20:57;14.67;;;2.70;;
16954;SDS011;8594;52.052;8.354;2023-12-22T09:23:24;14.17;;;2.40;;
16954;SDS011;8594;52.052;8.354;2023-12-22T09:25:50;11.33;;;2.47;;
16954;SDS011;8594;52.052;8.354;2023-12-22T09:28:17;9.43;;;2.30;;
16954;SDS011;8594;52.052;8.354;2023-12-22T09:30:45;10.37;;;2.50;;
16954;SDS011;8594;52.052;8.354;2023-12-22T09:33:12;7.87;;;2.10;;
16954;SDS011;8594;52.052;8.354;2023-12-22T09:35:39;9.43;;;2.20;;
16954;SDS011;8594;52.052;8.354;2023-12-22T09:38:07;6.07;;;2.00;;
16954;SDS011;8594;52.052;8.354;2023-12-22T09:40:34;19.73;;;3.03;;
16954;SDS011;8594;52.052;8.354;2023-12-22T09:43:01;13.97;;;2.30;;
16954;SDS011;8594;52.052;8.354;2023-12-22T09:45:30;10.10;;;1.97;;
16954;SDS011;8594;52.052;8.354;2023-12-22T09:48:01;12.67;;;3.20;;
16954;SDS011;8594;52.052;8.354;2023-12-22T09:50:29;16.30;;;3.40;;
16954;SDS011;8594;52.052;8.354;2023-12-22T09:52:57;9.13;;;2.00;;
16954;SDS011;8594;52.052;8.354;2023-12-22T09:55:24;16.53;;;2.83;;
16954;SDS011;8594;52.052;8.354;2023-12-22T09:57:52;9.30;;;2.23;;
16954;SDS011;8594;52.052;8.354;2023-12-22T10:00:20;12.50;;;2.83;;
16954;SDS011;8594;52.052;8.354;2023-12-22T10:02:48;16.97;;;2.33;;
16954;SDS011;8594;52.052;8.354;2023-12-22T10:05:17;7.93;;;2.20;;
16954;SDS011;8594;52.052;8.354;2023-12-22T10:07:44;9.17;;;2.37;;
16954;SDS011;8594;52.052;8.354;2023-12-22T10:10:13;11.53;;;2.40;;
16954;SDS011;8594;52.052;8.354;2023-12-22T10:12:41;9.23;;;2.60;;
16954;SDS011;8594;52.052;8.354;2023-12-22T10:15:12;8.63;;;2.30;;
16954;SDS011;8594;52.052;8.354;2023-12-22T10:17:39;17.03;;;2.50;;
16954;SDS011;8594;52.052;8.354;2023-12-22T10:20:07;11.10;;;2.30;;
16954;SDS011;8594;52.052;8.354;2023-12-22T10:22:36;5.83;;;2.37;;
16954;SDS011;8594;52.052;8.354;2023-12-22T10:25:03;14.03;;;2.80;;
16954;SDS011;8594;52.052;8.354;2023-12-22T10:27:32;17.93;;;3.40;;
16954;SDS011;8594;52.052;8.354;2023-12-22T10:29:59;10.27;;;2.00;;
16954;SDS011;8594;52.052;8.354;2023-12-22T10:32:26;10.80;;;2.77;;
16954;SDS011;8594;52.052;8.354;2023-12-22T10:34:53;11.20;;;2.20;;
16954;SDS011;8594;52.052;8.354;2023-12-22T10:37:20;9.07;;;1.97;;
16954;SDS011;8594;52.052;8.354;2023-12-22T10:39:49;9.43;;;2.47;;
16954;SDS011;8594;52.052;8.354;2023-12-22T10:42:18;8.50;;;2.17;;
16954;SDS011;8594;52.052;8.354;2023-12-22T10:44:46;10.47;;;2.20;;
16954;SDS011;8594;52.052;8.354;2023-12-22T10:47:13;7.77;;;1.97;;
16954;SDS011;8594;52.052;8.354;2023-12-22T10:49:40;9.70;;;2.00;;
16954;SDS011;8594;52.052;8.354;2023-12-22T10:52:08;11.77;;;2.37;;
16954;SDS011;8594;52.052;8.354;2023-12-22T10:54:42;8.77;;;2.00;;
16954;SDS011;8594;52.052;8.354;2023-12-22T10:57:10;10.83;;;2.07;;
16954;SDS011;8594;52.052;8.354;2023-12-22T10:59:38;9.80;;;2.00;;
16954;SDS011;8594;52.052;8.354;2023-12-22T11:02:12;7.13;;;2.20;;
16954;SDS011;8594;52.052;8.354;2023-12-22T11:04:45;8.27;;;2.43;;
16954;SDS011;8594;52.052;8.354;2023-12-22T11:07:23;10.77;;;2.03;;
16954;SDS011;8594;52.052;8.354;2023-12-22T11:09:51;11.70;;;2.67;;
16954;SDS011;8594;52.052;8.354;2023-12-22T11:12:23;8.50;;;2.07;;
16954;SDS011;8594;52.052;8.354;2023-12-22T11:14:52;7.93;;;2.67;;
16954;SDS011;8594;52.052;8.354;2023-12-22T11:17:21;12.80;;;2.13;;
16954;SDS011;8594;52.052;8.354;2023-12-22T11:19:49;7.57;;;2.07;;
16954;SDS011;8594;52.052;8.354;2023-12-22T11:22:19;10.67;;;2.30;;
16954;SDS011;8594;52.052;8.354;2023-12-22T11:24:48;18.33;;;2.33;;
16954;SDS011;8594;52.052;8.354;2023-12-22T11:27:16;10.50;;;2.10;;
16954;SDS011;8594;52.052;8.354;2023-12-22T11:29:46;4.63;;;1.97;;
16954;SDS011;8594;52.052;8.354;2023-12-22T11:32:16;10.10;;;1.90;;
16954;SDS011;8594;52.052;8.354;2023-12-22T11:34:45;10.37;;;1.97;;
16954;SDS011;8594;52.052;8.354;2023-12-22T11:37:13;5.13;;;1.97;;
16954;SDS011;8594;52.052;8.354;2023-12-22T11:39:42;9.90;;;2.27;;
16954;SDS011;8594;52.052;8.354;2023-12-22T11:42:11;6.33;;;1.70;;
16954;SDS011;8594;52.052;8.354;2023-12-22T11:44:45;9.23;;;1.90;;
16954;SDS011;8594;52.052;8.354;2023-12-22T11:47:12;14.33;;;2.50;;
16954;SDS011;8594;52.052;8.354;2023-12-22T11:49:40;13.97;;;2.27;;
16954;SDS011;8594;52.052;8.354;2023-12-22T11:52:11;6.53;;;1.83;;
16954;SDS011;8594;52.052;8.354;2023-12-22T11:54:45;7.33;;;1.63;;
16954;SDS011;8594;52.052;8.354;2023-12-22T11:57:28;10.30;;;2.33;;
16954;SDS011;8594;52.052;8.354;2023-12-22T11:59:58;6.57;;;2.00;;
16954;SDS011;8594;52.052;8.354;2023-12-22T12:02:31;6.17;;;1.60;;
16954;SDS011;8594;52.052;8.354;2023-12-22T12:05:00;11.50;;;1.53;;
16954;SDS011;8594;52.052;8.354;2023-12-22T12:07:38;5.90;;;1.50;;
16954;SDS011;8594;52.052;8.354;2023-12-22T12:10:09;5.97;;;1.57;;
16954;SDS011;8594;52.052;8.354;2023-12-22T12:12:36;5.30;;;1.70;;
16954;SDS011;8594;52.052;8.354;2023-12-22T12:15:09;4.57;;;1.70;;
16954;SDS011;8594;52.052;8.354;2023-12-22T12:17:39;4.63;;;1.60;;
16954;SDS011;8594;52.052;8.354;2023-12-22T12:20:08;12.03;;;1.87;;
16954;SDS011;8594;52.052;8.354;2023-12-22T12:22:37;7.67;;;2.20;;
16954;SDS011;8594;52.052;8.354;2023-12-22T12:25:08;5.77;;;1.60;;
16954;SDS011;8594;52.052;8.354;2023-12-22T12:27:37;2.87;;;1.13;;
16954;SDS011;8594;52.052;8.354;2023-12-22T12:30:11;4.10;;;1.70;;
16954;SDS011;8594;52.052;8.354;2023-12-22T12:32:43;4.00;;;1.60;;
16954;SDS011;8594;52.052;8.354;2023-12-22T12:35:11;8.63;;;1.80;;
16954;SDS011;8594;52.052;8.354;2023-12-22T12:37:39;2.23;;;1.30;;
16954;SDS011;8594;52.052;8.354;2023-12-22T12:40:11;6.17;;;1.40;;
16954;SDS011;8594;52.052;8.354;2023-12-22T12:42:38;4.03;;;1.47;;
16954;SDS011;8594;52.052;8.354;2023-12-22T12:45:05;4.57;;;1.23;;
16954;SDS011;8594;52.052;8.354;2023-12-22T12:47:35;4.10;;;1.67;;
16954;SDS011;8594;52.052;8.354;2023-12-22T12:50:02;4.90;;;1.20;;
16954;SDS011;8594;52.052;8.354;2023-12-22T12:52:29;5.17;;;1.60;;
16954;SDS011;8594;52.052;8.354;2023-12-22T12:54:56;6.13;;;1.63;;
16954;SDS011;8594;52.052;8.354;2023-12-22T12:57:25;3.03;;;1.20;;
16954;SDS011;8594;52.052;8.354;2023-12-22T12:59:52;2.93;;;1.20;;
16954;SDS011;8594;52.052;8.354;2023-12-22T13:02:19;3.13;;;1.33;;
16954;SDS011;8594;52.052;8.354;2023-12-22T13:04:49;7.27;;;1.27;;
16954;SDS011;8594;52.052;8.354;2023-12-22T13:07:23;3.70;;;1.00;;
16954;SDS011;8594;52.052;8.354;2023-12-22T13:09:51;4.00;;;1.10;;
16954;SDS011;8594;52.052;8.354;2023-12-22T13:12:19;3.63;;;1.03;;
16954;SDS011;8594;52.052;8.354;2023-12-22T13:14:45;3.07;;;1.30;;
16954;SDS011;8594;52.052;8.354;2023-12-22T13:17:11;2.47;;;1.30;;
16954;SDS011;8594;52.052;8.354;2023-12-22T13:19:38;1.80;;;1.10;;
16954;SDS011;8594;52.052;8.354;2023-12-22T13:22:07;3.13;;;1.73;;
16954;SDS011;8594;52.052;8.354;2023-12-22T13:24:35;2.43;;;0.90;;
16954;SDS011;8594;52.052;8.354;2023-12-22T13:27:02;5.07;;;1.50;;
16954;SDS011;8594;52.052;8.354;2023-12-22T13:29:41;2.30;;;1.20;;
16954;SDS011;8594;52.052;8.354;2023-12-22T13:32:14;3.27;;;1.10;;
16954;SDS011;8594;52.052;8.354;2023-12-22T13:34:46;1.40;;;1.00;;
16954;SDS011;8594;52.052;8.354;2023-12-22T13:37:18;3.33;;;1.07;;
16954;SDS011;8594;52.052;8.354;2023-12-22T13:39:45;3.07;;;0.90;;
16954;SDS011;8594;52.052;8.354;2023-12-22T13:42:15;3.83;;;1.20;;
16954;SDS011;8594;52.052;8.354;2023-12-22T13:44:44;2.57;;;1.20;;
16954;SDS011;8594;52.052;8.354;2023-12-22T13:47:12;2.57;;;1.00;;
16954;SDS011;8594;52.052;8.354;2023-12-22T13:49:40;1.83;;;1.07;;
16954;SDS011;8594;52.052;8.354;2023-12-22T13:52:07;1.43;;;1.00;;
16954;SDS011;8594;52.052;8.354;2023-12-22T13:54:35;3.20;;;1.03;;
16954;SDS011;8594;52.052;8.354;2023-12-22T13:57:02;2.03;;;1.10;;
16954;SDS011;8594;52.052;8.354;2023-12-22T13:59:32;1.80;;;1.00;;
16954;SDS011;8594;52.052;8.354;2023-12-22T14:01:59;2.87;;;0.97;;
16954;SDS011;8594;52.052;8.354;2023-12-22T14:04:26;3.23;;;1.03;;
16954;SDS011;8594;52.052;8.354;2023-12-22T14:06:53;2.30;;;0.90;;
16954;SDS011;8594;52.052;8.354;2023-12-22T14:09:20;1.30;;;1.20;;
16954;SDS011;8594;52.052;8.354;2023-12-22T14:11:50;3.07;;;1.20;;
16954;SDS011;8594;52.052;8.354;2023-12-22T14:14:17;1.70;;;1.00;;
16954;SDS011;8594;52.052;8.354;2023-12-22T14:16:44;2.23;;;1.20;;
16954;SDS011;8594;52.052;8.354;2023-12-22T14:19:11;5.40;;;1.20;;
16954;SDS011;8594;52.052;8.354;2023-12-22T14:21:38;5.63;;;1.10;;
16954;SDS011;8594;52.052;8.354;2023-12-22T14:24:04;2.73;;;0.97;;
16954;SDS011;8594;52.052;8.354;2023-12-22T14:26:32;3.03;;;1.30;;
16954;SDS011;8594;52.052;8.354;2023-12-22T14:29:00;2.10;;;1.37;;
16954;SDS011;8594;52.052;8.354;2023-12-22T14:31:27;1.87;;;1.20;;
16954;SDS011;8594;52.052;8.354;2023-12-22T14:33:54;5.80;;;1.17;;
16954;SDS011;8594;52.052;8.354;2023-12-22T14:36:23;4.33;;;1.30;;
16954;SDS011;8594;52.052;8.354;2023-12-22T14:38:50;4.50;;;1.30;;
16954;SDS011;8594;52.052;8.354;2023-12-22T14:41:24;2.97;;;1.10;;
16954;SDS011;8594;52.052;8.354;2023-12-22T14:43:51;6.43;;;1.40;;
16954;SDS011;8594;52.052;8.354;2023-12-22T14:46:17;1.90;;;0.90;;
16954;SDS011;8594;52.052;8.354;2023-12-22T14:48:44;5.03;;;1.10;;
16954;SDS011;8594;52.052;8.354;2023-12-22T14:51:11;2.07;;;0.90;;
16954;SDS011;8594;52.052;8.354;2023-12-22T14:53:37;5.07;;;1.30;;
16954;SDS011;8594;52.052;8.354;2023-12-22T14:56:05;3.40;;;1.00;;